sensor_id;sensor_type;location;lat;lon;timestamp;P1;P2;P0
71858;PMS5003;59713;50.866;4.324;2023-05-20T00:00:16;3;3;
71858;PMS5003;59713;50.866;4.324;2023-05-20T00:01:16;9;8;
71858;PMS5003;59713;50.866;4.324;2023-05-20T00:02:16;9;8;
71858;PMS5003;59713;50.866;4.324;2023-05-20T00:03:16;9;8;
71858;PMS5003;59713;50.866;4.324;2023-05-20T00:04:16;11;9;
71858;PMS5003;59713;50.866;4.324;2023-05-20T00:05:16;11;9;
71858;PMS5003;59713;50.866;4.324;2023-05-20T00:06:16;11;9;
71858;PMS5003;59713;50.866;4.324;2023-05-20T00:07:16;13;10;
71858;PMS5003;59713;50.866;4.324;2023-05-20T00:07:16;13;10;
71858;PMS5003;59713;50.866;4.324;2023-05-20T00:08:16;13;10;
71858;PMS5003;59713;50.866;4.324;2023-05-20T00:09:16;13;10;
71858;PMS5003;59713;50.866;4.324;2023-05-20T00:10:16;11;9;
71858;PMS5003;59713;50.866;4.324;2023-05-20T00:11:17;11;9;
71858;PMS5003;59713;50.866;4.324;2023-05-20T00:12:16;11;9;
71858;PMS5003;59713;50.866;4.324;2023-05-20T00:13:16;10;9;
71858;PMS5003;59713;50.866;4.324;2023-05-20T00:14:16;10;9;
71858;PMS5003;59713;50.866;4.324;2023-05-20T00:15:16;10;9;
71858;PMS5003;59713;50.866;4.324;2023-05-20T00:16:16;9;7;
71858;PMS5003;59713;50.866;4.324;2023-05-20T00:16:16;9;7;
71858;PMS5003;59713;50.866;4.324;2023-05-20T00:17:16;9;7;
71858;PMS5003;59713;50.866;4.324;2023-05-20T00:18:16;9;7;
71858;PMS5003;59713;50.866;4.324;2023-05-20T00:19:16;9;7;
71858;PMS5003;59713;50.866;4.324;2023-05-20T00:20:16;9;7;
71858;PMS5003;59713;50.866;4.324;2023-05-20T00:21:16;9;7;
71858;PMS5003;59713;50.866;4.324;2023-05-20T00:22:16;14;9;
71858;PMS5003;59713;50.866;4.324;2023-05-20T00:23:16;14;9;
71858;PMS5003;59713;50.866;4.324;2023-05-20T00:24:16;14;9;
71858;PMS5003;59713;50.866;4.324;2023-05-20T00:25:16;8;8;
71858;PMS5003;59713;50.866;4.324;2023-05-20T00:25:16;8;8;
71858;PMS5003;59713;50.866;4.324;2023-05-20T00:26:16;8;8;
71858;PMS5003;59713;50.866;4.324;2023-05-20T00:27:16;8;8;
71858;PMS5003;59713;50.866;4.324;2023-05-20T00:28:16;9;7;
71858;PMS5003;59713;50.866;4.324;2023-05-20T00:29:16;9;7;
71858;PMS5003;59713;50.866;4.324;2023-05-20T00:30:16;9;7;
71858;PMS5003;59713;50.866;4.324;2023-05-20T00:31:16;9;9;
71858;PMS5003;59713;50.866;4.324;2023-05-20T00:32:16;9;9;
71858;PMS5003;59713;50.866;4.324;2023-05-20T00:33:16;9;9;
71858;PMS5003;59713;50.866;4.324;2023-05-20T00:34:16;12;9;
71858;PMS5003;59713;50.866;4.324;2023-05-20T00:34:16;12;9;
71858;PMS5003;59713;50.866;4.324;2023-05-20T00:35:16;12;9;
71858;PMS5003;59713;50.866;4.324;2023-05-20T00:36:16;12;9;
71858;PMS5003;59713;50.866;4.324;2023-05-20T00:37:16;10;9;
71858;PMS5003;59713;50.866;4.324;2023-05-20T00:38:16;10;9;
71858;PMS5003;59713;50.866;4.324;2023-05-20T00:39:16;10;9;
71858;PMS5003;59713;50.866;4.324;2023-05-20T00:40:16;11;10;
71858;PMS5003;59713;50.866;4.324;2023-05-20T00:41:16;11;10;
71858;PMS5003;59713;50.866;4.324;2023-05-20T00:42:18;11;10;
71858;PMS5003;59713;50.866;4.324;2023-05-20T00:43:16;10;9;
71858;PMS5003;59713;50.866;4.324;2023-05-20T00:43:16;10;9;
71858;PMS5003;59713;50.866;4.324;2023-05-20T00:44:16;10;9;
71858;PMS5003;59713;50.866;4.324;2023-05-20T00:45:16;10;9;
71858;PMS5003;59713;50.866;4.324;2023-05-20T00:46:16;10;9;
71858;PMS5003;59713;50.866;4.324;2023-05-20T00:47:16;10;9;
71858;PMS5003;59713;50.866;4.324;2023-05-20T00:48:16;10;9;
71858;PMS5003;59713;50.866;4.324;2023-05-20T00:49:16;11;9;
71858;PMS5003;59713;50.866;4.324;2023-05-20T00:50:16;11;9;
71858;PMS5003;59713;50.866;4.324;2023-05-20T00:51:16;11;9;
71858;PMS5003;59713;50.866;4.324;2023-05-20T00:52:16;8;8;
71858;PMS5003;59713;50.866;4.324;2023-05-20T00:52:16;8;8;
71858;PMS5003;59713;50.866;4.324;2023-05-20T00:53:16;8;8;
71858;PMS5003;59713;50.866;4.324;2023-05-20T00:54:16;8;8;
71858;PMS5003;59713;50.866;4.324;2023-05-20T00:55:16;8;8;
71858;PMS5003;59713;50.866;4.324;2023-05-20T00:56:16;8;8;
71858;PMS5003;59713;50.866;4.324;2023-05-20T00:57:16;8;8;
71858;PMS5003;59713;50.866;4.324;2023-05-20T00:58:16;12;10;
71858;PMS5003;59713;50.866;4.324;2023-05-20T00:59:16;12;10;
71858;PMS5003;59713;50.866;4.324;2023-05-20T01:00:16;12;10;
71858;PMS5003;59713;50.866;4.324;2023-05-20T01:01:16;9;8;
71858;PMS5003;59713;50.866;4.324;2023-05-20T01:01:16;9;8;
71858;PMS5003;59713;50.866;4.324;2023-05-20T01:02:16;9;8;
71858;PMS5003;59713;50.866;4.324;2023-05-20T01:03:16;9;8;
71858;PMS5003;59713;50.866;4.324;2023-05-20T01:04:16;9;9;
71858;PMS5003;59713;50.866;4.324;2023-05-20T01:05:16;9;9;
71858;PMS5003;59713;50.866;4.324;2023-05-20T01:06:16;9;9;
71858;PMS5003;59713;50.866;4.324;2023-05-20T01:07:16;12;10;
71858;PMS5003;59713;50.866;4.324;2023-05-20T01:08:16;12;10;
71858;PMS5003;59713;50.866;4.324;2023-05-20T01:09:16;12;10;
71858;PMS5003;59713;50.866;4.324;2023-05-20T01:10:16;11;9;
71858;PMS5003;59713;50.866;4.324;2023-05-20T01:10:16;11;9;
71858;PMS5003;59713;50.866;4.324;2023-05-20T01:11:19;11;9;
71858;PMS5003;59713;50.866;4.324;2023-05-20T01:12:17;11;9;
71858;PMS5003;59713;50.866;4.324;2023-05-20T01:13:18;13;11;
71858;PMS5003;59713;50.866;4.324;2023-05-20T01:14:16;13;11;
71858;PMS5003;59713;50.866;4.324;2023-05-20T01:15:16;13;11;
71858;PMS5003;59713;50.866;4.324;2023-05-20T01:16:16;12;10;
71858;PMS5003;59713;50.866;4.324;2023-05-20T01:17:17;12;10;
71858;PMS5003;59713;50.866;4.324;2023-05-20T01:18:16;12;10;
71858;PMS5003;59713;50.866;4.324;2023-05-20T01:19:19;12;9;
71858;PMS5003;59713;50.866;4.324;2023-05-20T01:19:26;12;9;
71858;PMS5003;59713;50.866;4.324;2023-05-20T01:20:16;12;9;
71858;PMS5003;59713;50.866;4.324;2023-05-20T01:21:16;12;9;
71858;PMS5003;59713;50.866;4.324;2023-05-20T01:22:16;10;10;
71858;PMS5003;59713;50.866;4.324;2023-05-20T01:23:16;10;10;
71858;PMS5003;59713;50.866;4.324;2023-05-20T01:24:16;10;10;
71858;PMS5003;59713;50.866;4.324;2023-05-20T01:25:16;12;12;
71858;PMS5003;59713;50.866;4.324;2023-05-20T01:26:16;12;12;
71858;PMS5003;59713;50.866;4.324;2023-05-20T01:27:16;12;12;
71858;PMS5003;59713;50.866;4.324;2023-05-20T01:28:16;11;10;
71858;PMS5003;59713;50.866;4.324;2023-05-20T01:29:16;11;10;
71858;PMS5003;59713;50.866;4.324;2023-05-20T01:29:16;11;10;
71858;PMS5003;59713;50.866;4.324;2023-05-20T01:30:16;11;10;
71858;PMS5003;59713;50.866;4.324;2023-05-20T01:31:17;8;8;
71858;PMS5003;59713;50.866;4.324;2023-05-20T01:32:18;8;8;
71858;PMS5003;59713;50.866;4.324;2023-05-20T01:33:16;8;8;
71858;PMS5003;59713;50.866;4.324;2023-05-20T01:34:16;10;10;
71858;PMS5003;59713;50.866;4.324;2023-05-20T01:35:16;10;10;
71858;PMS5003;59713;50.866;4.324;2023-05-20T01:36:16;10;10;
71858;PMS5003;59713;50.866;4.324;2023-05-20T01:37:16;11;9;
71858;PMS5003;59713;50.866;4.324;2023-05-20T01:38:16;11;9;
71858;PMS5003;59713;50.866;4.324;2023-05-20T01:38:16;11;9;
71858;PMS5003;59713;50.866;4.324;2023-05-20T01:39:16;11;9;
71858;PMS5003;59713;50.866;4.324;2023-05-20T01:40:16;16;11;
71858;PMS5003;59713;50.866;4.324;2023-05-20T01:41:16;16;11;
71858;PMS5003;59713;50.866;4.324;2023-05-20T01:42:16;16;11;
71858;PMS5003;59713;50.866;4.324;2023-05-20T01:43:16;13;10;
71858;PMS5003;59713;50.866;4.324;2023-05-20T01:44:16;13;10;
71858;PMS5003;59713;50.866;4.324;2023-05-20T01:45:16;13;10;
71858;PMS5003;59713;50.866;4.324;2023-05-20T01:46:16;10;10;
71858;PMS5003;59713;50.866;4.324;2023-05-20T01:47:16;10;10;
71858;PMS5003;59713;50.866;4.324;2023-05-20T01:47:16;10;10;
71858;PMS5003;59713;50.866;4.324;2023-05-20T01:48:16;10;10;
71858;PMS5003;59713;50.866;4.324;2023-05-20T01:49:16;13;10;
71858;PMS5003;59713;50.866;4.324;2023-05-20T01:50:16;13;10;
71858;PMS5003;59713;50.866;4.324;2023-05-20T01:51:16;13;10;
71858;PMS5003;59713;50.866;4.324;2023-05-20T01:52:16;10;9;
71858;PMS5003;59713;50.866;4.324;2023-05-20T01:53:16;10;9;
71858;PMS5003;59713;50.866;4.324;2023-05-20T01:54:16;10;9;
71858;PMS5003;59713;50.866;4.324;2023-05-20T01:55:16;12;11;
71858;PMS5003;59713;50.866;4.324;2023-05-20T01:56:16;12;11;
71858;PMS5003;59713;50.866;4.324;2023-05-20T01:56:16;12;11;
71858;PMS5003;59713;50.866;4.324;2023-05-20T01:57:16;12;11;
71858;PMS5003;59713;50.866;4.324;2023-05-20T01:58:16;13;12;
71858;PMS5003;59713;50.866;4.324;2023-05-20T01:59:16;13;12;
71858;PMS5003;59713;50.866;4.324;2023-05-20T02:00:16;13;12;
71858;PMS5003;59713;50.866;4.324;2023-05-20T02:01:16;10;8;
71858;PMS5003;59713;50.866;4.324;2023-05-20T02:02:16;10;8;
71858;PMS5003;59713;50.866;4.324;2023-05-20T02:03:16;10;8;
71858;PMS5003;59713;50.866;4.324;2023-05-20T02:04:16;12;11;
71858;PMS5003;59713;50.866;4.324;2023-05-20T02:05:16;12;11;
71858;PMS5003;59713;50.866;4.324;2023-05-20T02:05:16;12;11;
71858;PMS5003;59713;50.866;4.324;2023-05-20T02:06:16;12;11;
71858;PMS5003;59713;50.866;4.324;2023-05-20T02:07:16;11;10;
71858;PMS5003;59713;50.866;4.324;2023-05-20T02:08:16;11;10;
71858;PMS5003;59713;50.866;4.324;2023-05-20T02:09:17;11;10;
71858;PMS5003;59713;50.866;4.324;2023-05-20T02:10:16;9;9;
71858;PMS5003;59713;50.866;4.324;2023-05-20T02:11:16;9;9;
71858;PMS5003;59713;50.866;4.324;2023-05-20T02:12:16;9;9;
71858;PMS5003;59713;50.866;4.324;2023-05-20T02:13:16;13;10;
71858;PMS5003;59713;50.866;4.324;2023-05-20T02:14:16;13;10;
71858;PMS5003;59713;50.866;4.324;2023-05-20T02:14:16;13;10;
71858;PMS5003;59713;50.866;4.324;2023-05-20T02:15:16;13;10;
71858;PMS5003;59713;50.866;4.324;2023-05-20T02:16:16;4;4;
71858;PMS5003;59713;50.866;4.324;2023-05-20T02:17:16;4;4;
71858;PMS5003;59713;50.866;4.324;2023-05-20T02:18:16;4;4;
71858;PMS5003;59713;50.866;4.324;2023-05-20T02:19:16;9;7;
71858;PMS5003;59713;50.866;4.324;2023-05-20T02:20:16;9;7;
71858;PMS5003;59713;50.866;4.324;2023-05-20T02:21:16;9;7;
71858;PMS5003;59713;50.866;4.324;2023-05-20T02:22:17;12;10;
71858;PMS5003;59713;50.866;4.324;2023-05-20T02:23:16;12;10;
71858;PMS5003;59713;50.866;4.324;2023-05-20T02:24:16;12;10;
71858;PMS5003;59713;50.866;4.324;2023-05-20T02:24:16;12;10;
71858;PMS5003;59713;50.866;4.324;2023-05-20T02:25:16;10;9;
71858;PMS5003;59713;50.866;4.324;2023-05-20T02:26:16;10;9;
71858;PMS5003;59713;50.866;4.324;2023-05-20T02:27:16;10;9;
71858;PMS5003;59713;50.866;4.324;2023-05-20T02:28:16;11;10;
71858;PMS5003;59713;50.866;4.324;2023-05-20T02:29:16;11;10;
71858;PMS5003;59713;50.866;4.324;2023-05-20T02:30:16;11;10;
71858;PMS5003;59713;50.866;4.324;2023-05-20T02:31:16;12;11;
71858;PMS5003;59713;50.866;4.324;2023-05-20T02:32:16;12;11;
71858;PMS5003;59713;50.866;4.324;2023-05-20T02:33:16;12;11;
71858;PMS5003;59713;50.866;4.324;2023-05-20T02:33:16;12;11;
71858;PMS5003;59713;50.866;4.324;2023-05-20T02:34:16;9;9;
71858;PMS5003;59713;50.866;4.324;2023-05-20T02:35:16;9;9;
71858;PMS5003;59713;50.866;4.324;2023-05-20T02:36:16;9;9;
71858;PMS5003;59713;50.866;4.324;2023-05-20T02:37:16;12;12;
71858;PMS5003;59713;50.866;4.324;2023-05-20T02:38:16;12;12;
71858;PMS5003;59713;50.866;4.324;2023-05-20T02:39:16;12;12;
71858;PMS5003;59713;50.866;4.324;2023-05-20T02:40:16;12;10;
71858;PMS5003;59713;50.866;4.324;2023-05-20T02:41:16;12;10;
71858;PMS5003;59713;50.866;4.324;2023-05-20T02:42:16;12;10;
71858;PMS5003;59713;50.866;4.324;2023-05-20T02:43:16;13;10;
71858;PMS5003;59713;50.866;4.324;2023-05-20T02:44:16;13;10;
71858;PMS5003;59713;50.866;4.324;2023-05-20T02:45:16;13;10;
71858;PMS5003;59713;50.866;4.324;2023-05-20T02:46:16;9;9;
71858;PMS5003;59713;50.866;4.324;2023-05-20T02:47:16;9;9;
71858;PMS5003;59713;50.866;4.324;2023-05-20T02:48:16;9;9;
71858;PMS5003;59713;50.866;4.324;2023-05-20T02:49:16;8;8;
71858;PMS5003;59713;50.866;4.324;2023-05-20T02:50:16;8;8;
71858;PMS5003;59713;50.866;4.324;2023-05-20T02:51:16;8;8;
71858;PMS5003;59713;50.866;4.324;2023-05-20T02:51:16;8;8;
71858;PMS5003;59713;50.866;4.324;2023-05-20T02:52:16;11;10;
71858;PMS5003;59713;50.866;4.324;2023-05-20T02:53:16;11;10;
71858;PMS5003;59713;50.866;4.324;2023-05-20T02:54:16;11;10;
71858;PMS5003;59713;50.866;4.324;2023-05-20T02:55:16;9;9;
71858;PMS5003;59713;50.866;4.324;2023-05-20T02:56:16;9;9;
71858;PMS5003;59713;50.866;4.324;2023-05-20T02:57:16;9;9;
71858;PMS5003;59713;50.866;4.324;2023-05-20T02:58:16;10;10;
71858;PMS5003;59713;50.866;4.324;2023-05-20T02:59:16;10;10;
71858;PMS5003;59713;50.866;4.324;2023-05-20T03:00:16;10;10;
71858;PMS5003;59713;50.866;4.324;2023-05-20T03:00:16;10;10;
71858;PMS5003;59713;50.866;4.324;2023-05-20T03:01:16;9;9;
71858;PMS5003;59713;50.866;4.324;2023-05-20T03:02:16;9;9;
71858;PMS5003;59713;50.866;4.324;2023-05-20T03:03:16;9;9;
71858;PMS5003;59713;50.866;4.324;2023-05-20T03:04:16;7;7;
71858;PMS5003;59713;50.866;4.324;2023-05-20T03:05:16;7;7;
71858;PMS5003;59713;50.866;4.324;2023-05-20T03:06:16;7;7;
71858;PMS5003;59713;50.866;4.324;2023-05-20T03:07:16;7;7;
71858;PMS5003;59713;50.866;4.324;2023-05-20T03:08:20;7;7;
71858;PMS5003;59713;50.866;4.324;2023-05-20T03:09:16;7;7;
71858;PMS5003;59713;50.866;4.324;2023-05-20T03:09:16;7;7;
71858;PMS5003;59713;50.866;4.324;2023-05-20T03:10:16;14;12;
71858;PMS5003;59713;50.866;4.324;2023-05-20T03:11:16;14;12;
71858;PMS5003;59713;50.866;4.324;2023-05-20T03:12:16;14;12;
71858;PMS5003;59713;50.866;4.324;2023-05-20T03:13:16;9;9;
71858;PMS5003;59713;50.866;4.324;2023-05-20T03:14:16;9;9;
71858;PMS5003;59713;50.866;4.324;2023-05-20T03:15:16;9;9;
71858;PMS5003;59713;50.866;4.324;2023-05-20T03:16:16;10;10;
71858;PMS5003;59713;50.866;4.324;2023-05-20T03:17:16;10;10;
71858;PMS5003;59713;50.866;4.324;2023-05-20T03:18:16;10;10;
71858;PMS5003;59713;50.866;4.324;2023-05-20T03:18:16;10;10;
71858;PMS5003;59713;50.866;4.324;2023-05-20T03:19:16;12;10;
71858;PMS5003;59713;50.866;4.324;2023-05-20T03:20:16;12;10;
71858;PMS5003;59713;50.866;4.324;2023-05-20T03:21:16;12;10;
71858;PMS5003;59713;50.866;4.324;2023-05-20T03:22:16;9;9;
71858;PMS5003;59713;50.866;4.324;2023-05-20T03:23:16;9;9;
71858;PMS5003;59713;50.866;4.324;2023-05-20T03:24:16;9;9;
71858;PMS5003;59713;50.866;4.324;2023-05-20T03:25:16;11;11;
71858;PMS5003;59713;50.866;4.324;2023-05-20T03:26:16;11;11;
71858;PMS5003;59713;50.866;4.324;2023-05-20T03:27:16;11;11;
71858;PMS5003;59713;50.866;4.324;2023-05-20T03:28:16;9;9;
71858;PMS5003;59713;50.866;4.324;2023-05-20T03:29:16;9;9;
71858;PMS5003;59713;50.866;4.324;2023-05-20T03:30:16;9;9;
71858;PMS5003;59713;50.866;4.324;2023-05-20T03:31:16;15;9;
71858;PMS5003;59713;50.866;4.324;2023-05-20T03:32:16;15;9;
71858;PMS5003;59713;50.866;4.324;2023-05-20T03:33:16;15;9;
71858;PMS5003;59713;50.866;4.324;2023-05-20T03:34:16;8;8;
71858;PMS5003;59713;50.866;4.324;2023-05-20T03:35:16;8;8;
71858;PMS5003;59713;50.866;4.324;2023-05-20T03:36:16;8;8;
71858;PMS5003;59713;50.866;4.324;2023-05-20T03:36:16;8;8;
71858;PMS5003;59713;50.866;4.324;2023-05-20T03:37:16;7;7;
71858;PMS5003;59713;50.866;4.324;2023-05-20T03:38:16;7;7;
71858;PMS5003;59713;50.866;4.324;2023-05-20T03:39:16;7;7;
71858;PMS5003;59713;50.866;4.324;2023-05-20T03:40:16;10;10;
71858;PMS5003;59713;50.866;4.324;2023-05-20T03:41:16;10;10;
71858;PMS5003;59713;50.866;4.324;2023-05-20T03:42:16;10;10;
71858;PMS5003;59713;50.866;4.324;2023-05-20T03:43:16;10;9;
71858;PMS5003;59713;50.866;4.324;2023-05-20T03:44:16;10;9;
71858;PMS5003;59713;50.866;4.324;2023-05-20T03:45:16;10;9;
71858;PMS5003;59713;50.866;4.324;2023-05-20T03:45:16;10;9;
71858;PMS5003;59713;50.866;4.324;2023-05-20T03:46:16;12;11;
71858;PMS5003;59713;50.866;4.324;2023-05-20T03:47:16;12;11;
71858;PMS5003;59713;50.866;4.324;2023-05-20T03:48:16;12;11;
71858;PMS5003;59713;50.866;4.324;2023-05-20T03:49:16;9;9;
71858;PMS5003;59713;50.866;4.324;2023-05-20T03:50:16;9;9;
71858;PMS5003;59713;50.866;4.324;2023-05-20T03:51:16;9;9;
71858;PMS5003;59713;50.866;4.324;2023-05-20T03:52:16;11;10;
71858;PMS5003;59713;50.866;4.324;2023-05-20T03:53:16;11;10;
71858;PMS5003;59713;50.866;4.324;2023-05-20T03:54:16;11;10;
71858;PMS5003;59713;50.866;4.324;2023-05-20T03:54:16;11;10;
71858;PMS5003;59713;50.866;4.324;2023-05-20T03:55:16;12;11;
71858;PMS5003;59713;50.866;4.324;2023-05-20T03:56:16;12;11;
71858;PMS5003;59713;50.866;4.324;2023-05-20T03:57:16;12;11;
71858;PMS5003;59713;50.866;4.324;2023-05-20T03:58:16;9;8;
71858;PMS5003;59713;50.866;4.324;2023-05-20T03:59:17;9;8;
71858;PMS5003;59713;50.866;4.324;2023-05-20T04:00:16;9;8;
71858;PMS5003;59713;50.866;4.324;2023-05-20T04:01:16;13;10;
71858;PMS5003;59713;50.866;4.324;2023-05-20T04:02:16;13;10;
71858;PMS5003;59713;50.866;4.324;2023-05-20T04:03:16;13;10;
71858;PMS5003;59713;50.866;4.324;2023-05-20T04:03:16;13;10;
71858;PMS5003;59713;50.866;4.324;2023-05-20T04:04:16;10;8;
71858;PMS5003;59713;50.866;4.324;2023-05-20T04:05:16;10;8;
71858;PMS5003;59713;50.866;4.324;2023-05-20T04:06:16;10;8;
71858;PMS5003;59713;50.866;4.324;2023-05-20T04:07:16;15;9;
71858;PMS5003;59713;50.866;4.324;2023-05-20T04:08:16;15;9;
71858;PMS5003;59713;50.866;4.324;2023-05-20T04:09:16;15;9;
71858;PMS5003;59713;50.866;4.324;2023-05-20T04:10:17;9;8;
71858;PMS5003;59713;50.866;4.324;2023-05-20T04:11:16;9;8;
71858;PMS5003;59713;50.866;4.324;2023-05-20T04:12:16;9;8;
71858;PMS5003;59713;50.866;4.324;2023-05-20T04:12:16;9;8;
71858;PMS5003;59713;50.866;4.324;2023-05-20T04:13:16;11;9;
71858;PMS5003;59713;50.866;4.324;2023-05-20T04:14:16;11;9;
71858;PMS5003;59713;50.866;4.324;2023-05-20T04:15:16;11;9;
71858;PMS5003;59713;50.866;4.324;2023-05-20T04:16:16;12;12;
71858;PMS5003;59713;50.866;4.324;2023-05-20T04:17:16;12;12;
71858;PMS5003;59713;50.866;4.324;2023-05-20T04:18:16;12;12;
71858;PMS5003;59713;50.866;4.324;2023-05-20T04:19:16;14;9;
71858;PMS5003;59713;50.866;4.324;2023-05-20T04:20:16;14;9;
71858;PMS5003;59713;50.866;4.324;2023-05-20T04:21:16;14;9;
71858;PMS5003;59713;50.866;4.324;2023-05-20T04:21:16;14;9;
71858;PMS5003;59713;50.866;4.324;2023-05-20T04:22:16;9;9;
71858;PMS5003;59713;50.866;4.324;2023-05-20T04:23:16;9;9;
71858;PMS5003;59713;50.866;4.324;2023-05-20T04:24:16;9;9;
71858;PMS5003;59713;50.866;4.324;2023-05-20T04:25:16;12;9;
71858;PMS5003;59713;50.866;4.324;2023-05-20T04:26:16;12;9;
71858;PMS5003;59713;50.866;4.324;2023-05-20T04:27:16;12;9;
71858;PMS5003;59713;50.866;4.324;2023-05-20T04:28:16;12;7;
71858;PMS5003;59713;50.866;4.324;2023-05-20T04:29:16;12;7;
71858;PMS5003;59713;50.866;4.324;2023-05-20T04:30:16;12;7;
71858;PMS5003;59713;50.866;4.324;2023-05-20T04:30:16;12;7;
71858;PMS5003;59713;50.866;4.324;2023-05-20T04:31:16;10;10;
71858;PMS5003;59713;50.866;4.324;2023-05-20T04:32:18;10;10;
71858;PMS5003;59713;50.866;4.324;2023-05-20T04:33:16;10;10;
71858;PMS5003;59713;50.866;4.324;2023-05-20T04:34:16;9;9;
71858;PMS5003;59713;50.866;4.324;2023-05-20T04:35:16;9;9;
71858;PMS5003;59713;50.866;4.324;2023-05-20T04:36:16;9;9;
71858;PMS5003;59713;50.866;4.324;2023-05-20T04:37:16;9;9;
71858;PMS5003;59713;50.866;4.324;2023-05-20T04:38:16;9;9;
71858;PMS5003;59713;50.866;4.324;2023-05-20T04:39:16;9;9;
71858;PMS5003;59713;50.866;4.324;2023-05-20T04:39:16;9;9;
71858;PMS5003;59713;50.866;4.324;2023-05-20T04:40:16;11;11;
71858;PMS5003;59713;50.866;4.324;2023-05-20T04:41:16;11;11;
71858;PMS5003;59713;50.866;4.324;2023-05-20T04:42:16;11;11;
71858;PMS5003;59713;50.866;4.324;2023-05-20T04:43:16;11;11;
71858;PMS5003;59713;50.866;4.324;2023-05-20T04:44:16;11;11;
71858;PMS5003;59713;50.866;4.324;2023-05-20T04:45:16;11;11;
71858;PMS5003;59713;50.866;4.324;2023-05-20T04:46:16;9;8;
71858;PMS5003;59713;50.866;4.324;2023-05-20T04:47:16;9;8;
71858;PMS5003;59713;50.866;4.324;2023-05-20T04:48:16;9;8;
71858;PMS5003;59713;50.866;4.324;2023-05-20T04:48:16;9;8;
71858;PMS5003;59713;50.866;4.324;2023-05-20T04:49:16;13;11;
71858;PMS5003;59713;50.866;4.324;2023-05-20T04:50:16;13;11;
71858;PMS5003;59713;50.866;4.324;2023-05-20T04:51:16;13;11;
71858;PMS5003;59713;50.866;4.324;2023-05-20T04:52:16;10;10;
71858;PMS5003;59713;50.866;4.324;2023-05-20T04:53:16;10;10;
71858;PMS5003;59713;50.866;4.324;2023-05-20T04:54:16;10;10;
71858;PMS5003;59713;50.866;4.324;2023-05-20T04:55:16;7;7;
71858;PMS5003;59713;50.866;4.324;2023-05-20T04:56:16;7;7;
71858;PMS5003;59713;50.866;4.324;2023-05-20T04:57:17;7;7;
71858;PMS5003;59713;50.866;4.324;2023-05-20T04:58:16;10;9;
71858;PMS5003;59713;50.866;4.324;2023-05-20T04:59:16;10;9;
71858;PMS5003;59713;50.866;4.324;2023-05-20T05:00:16;10;9;
71858;PMS5003;59713;50.866;4.324;2023-05-20T05:01:16;11;11;
71858;PMS5003;59713;50.866;4.324;2023-05-20T05:02:16;11;11;
71858;PMS5003;59713;50.866;4.324;2023-05-20T05:03:16;11;11;
71858;PMS5003;59713;50.866;4.324;2023-05-20T05:04:16;14;11;
71858;PMS5003;59713;50.866;4.324;2023-05-20T05:05:16;14;11;
71858;PMS5003;59713;50.866;4.324;2023-05-20T05:06:16;14;11;
71858;PMS5003;59713;50.866;4.324;2023-05-20T05:06:16;14;11;
71858;PMS5003;59713;50.866;4.324;2023-05-20T05:07:16;11;9;
71858;PMS5003;59713;50.866;4.324;2023-05-20T05:08:16;11;9;
71858;PMS5003;59713;50.866;4.324;2023-05-20T05:09:16;11;9;
71858;PMS5003;59713;50.866;4.324;2023-05-20T05:10:16;11;10;
71858;PMS5003;59713;50.866;4.324;2023-05-20T05:11:16;11;10;
71858;PMS5003;59713;50.866;4.324;2023-05-20T05:12:16;11;10;
71858;PMS5003;59713;50.866;4.324;2023-05-20T05:13:16;9;8;
71858;PMS5003;59713;50.866;4.324;2023-05-20T05:14:16;9;8;
71858;PMS5003;59713;50.866;4.324;2023-05-20T05:15:16;9;8;
71858;PMS5003;59713;50.866;4.324;2023-05-20T05:16:16;14;10;
71858;PMS5003;59713;50.866;4.324;2023-05-20T05:16:16;14;10;
71858;PMS5003;59713;50.866;4.324;2023-05-20T05:17:16;14;10;
71858;PMS5003;59713;50.866;4.324;2023-05-20T05:18:16;14;10;
71858;PMS5003;59713;50.866;4.324;2023-05-20T05:19:16;11;10;
71858;PMS5003;59713;50.866;4.324;2023-05-20T05:20:16;11;10;
71858;PMS5003;59713;50.866;4.324;2023-05-20T05:21:16;11;10;
71858;PMS5003;59713;50.866;4.324;2023-05-20T05:22:17;13;10;
71858;PMS5003;59713;50.866;4.324;2023-05-20T05:23:16;13;10;
71858;PMS5003;59713;50.866;4.324;2023-05-20T05:24:16;13;10;
71858;PMS5003;59713;50.866;4.324;2023-05-20T05:25:16;14;9;
71858;PMS5003;59713;50.866;4.324;2023-05-20T05:25:16;14;9;
71858;PMS5003;59713;50.866;4.324;2023-05-20T05:26:16;14;9;
71858;PMS5003;59713;50.866;4.324;2023-05-20T05:27:16;14;9;
71858;PMS5003;59713;50.866;4.324;2023-05-20T05:28:16;12;11;
71858;PMS5003;59713;50.866;4.324;2023-05-20T05:29:16;12;11;
71858;PMS5003;59713;50.866;4.324;2023-05-20T05:30:16;12;11;
71858;PMS5003;59713;50.866;4.324;2023-05-20T05:31:16;8;8;
71858;PMS5003;59713;50.866;4.324;2023-05-20T05:32:16;8;8;
71858;PMS5003;59713;50.866;4.324;2023-05-20T05:33:16;8;8;
71858;PMS5003;59713;50.866;4.324;2023-05-20T05:34:16;14;14;
71858;PMS5003;59713;50.866;4.324;2023-05-20T05:34:16;14;14;
71858;PMS5003;59713;50.866;4.324;2023-05-20T05:35:16;14;14;
71858;PMS5003;59713;50.866;4.324;2023-05-20T05:36:16;14;14;
71858;PMS5003;59713;50.866;4.324;2023-05-20T05:37:16;11;10;
71858;PMS5003;59713;50.866;4.324;2023-05-20T05:38:16;11;10;
71858;PMS5003;59713;50.866;4.324;2023-05-20T05:39:16;11;10;
71858;PMS5003;59713;50.866;4.324;2023-05-20T05:40:17;14;11;
71858;PMS5003;59713;50.866;4.324;2023-05-20T05:41:16;14;11;
71858;PMS5003;59713;50.866;4.324;2023-05-20T05:42:16;14;11;
71858;PMS5003;59713;50.866;4.324;2023-05-20T05:43:16;7;7;
71858;PMS5003;59713;50.866;4.324;2023-05-20T05:43:17;7;7;
71858;PMS5003;59713;50.866;4.324;2023-05-20T05:44:16;7;7;
71858;PMS5003;59713;50.866;4.324;2023-05-20T05:45:16;7;7;
71858;PMS5003;59713;50.866;4.324;2023-05-20T05:46:16;10;8;
71858;PMS5003;59713;50.866;4.324;2023-05-20T05:47:16;10;8;
71858;PMS5003;59713;50.866;4.324;2023-05-20T05:48:16;10;8;
71858;PMS5003;59713;50.866;4.324;2023-05-20T05:49:16;10;6;
71858;PMS5003;59713;50.866;4.324;2023-05-20T05:50:17;10;6;
71858;PMS5003;59713;50.866;4.324;2023-05-20T05:51:16;10;6;
71858;PMS5003;59713;50.866;4.324;2023-05-20T05:52:16;11;10;
71858;PMS5003;59713;50.866;4.324;2023-05-20T05:52:17;11;10;
71858;PMS5003;59713;50.866;4.324;2023-05-20T05:53:16;11;10;
71858;PMS5003;59713;50.866;4.324;2023-05-20T05:54:17;11;10;
71858;PMS5003;59713;50.866;4.324;2023-05-20T05:55:16;11;10;
71858;PMS5003;59713;50.866;4.324;2023-05-20T05:56:16;11;10;
71858;PMS5003;59713;50.866;4.324;2023-05-20T05:57:16;11;10;
71858;PMS5003;59713;50.866;4.324;2023-05-20T05:58:16;10;9;
71858;PMS5003;59713;50.866;4.324;2023-05-20T05:59:17;10;9;
71858;PMS5003;59713;50.866;4.324;2023-05-20T06:00:17;10;9;
71858;PMS5003;59713;50.866;4.324;2023-05-20T06:01:16;11;8;
71858;PMS5003;59713;50.866;4.324;2023-05-20T06:01:16;11;8;
71858;PMS5003;59713;50.866;4.324;2023-05-20T06:02:16;11;8;
71858;PMS5003;59713;50.866;4.324;2023-05-20T06:03:16;11;8;
71858;PMS5003;59713;50.866;4.324;2023-05-20T06:04:17;8;8;
71858;PMS5003;59713;50.866;4.324;2023-05-20T06:05:17;8;8;
71858;PMS5003;59713;50.866;4.324;2023-05-20T06:06:16;8;8;